All
Gayndah Airport (Gayndah, Queensland) GAH Weather
|
Gayndah, Queensland (GAH / YGAY)
Clear skies
Light winds |
|
26 °C |
There is no TAF data available at GAH or any nearby airports.
Recent GAH METAR history
| Date | Time (AEST) | Flight Rules | Wind Dir. | Speed | Type | Height AGL (ft) | Visibility | Temp (°C) | Temp (°F) | Dew Point (°C) | Dew Point (°F) | Rel. Humid. | Pressure | Density Altitude | Remarks |
|---|---|---|---|---|---|---|---|---|---|---|---|---|---|---|---|
| 09-May | 15:00 | n/a | 70° | 4 kt | Missing | 26° | 78° | 10° | 50° | 37% | 1019 mb | 1,518 ft | |||
| 09-May | 14:00 | n/a | 50° | 5 kt | Missing | 26° | 78° | 9° | 48° | 34% | 1019 mb | 1,518 ft | |||
| 09-May | 13:00 | n/a | 30° | 4 kt | Missing | 26° | 78° | 9° | 48° | 34% | 1020 mb | 1,488 ft | |||
| 09-May | 12:00 | n/a | 20° | 4 kt | Missing | 24° | 75° | 8° | 46° | 36% | 1021 mb | 1,219 ft | |||
| 09-May | 11:00 | n/a | 10° | 3 kt | Missing | 23° | 73° | 7° | 44° | 36% | 1022 mb | 1,069 ft | |||
| 09-May | 10:00 | n/a | 300° | 3 kt | Missing | 21° | 69° | 6° | 42° | 38% | 1022 mb | 829 ft | |||
| 09-May | 09:00 | n/a | 240° | 3 kt | Missing | 18° | 64° | 6° | 42° | 45% | 1022 mb | 469 ft | |||
| 09-May | 08:00 | n/a | 240° | 4 kt | Missing | 15° | 59° | 6° | 42° | 55% | 1022 mb | 109 ft | |||
| 09-May | 07:00 | n/a | 210° | 2 kt | Missing | 11° | 51° | 6° | 42° | 71% | 1021 mb | -341 ft | |||
| 09-May | 06:00 | n/a | 240° | 3 kt | Missing | 10° | 50° | 6° | 42° | 76% | 1021 mb | -461 ft | |||
| 09-May | 05:00 | n/a | Calm | Missing | 9° | 48° | 5° | 41° | 76% | 1020 mb | -552 ft | ||||
| 09-May | 04:00 | n/a | Calm | Missing | 10° | 50° | 4° | 39° | 66% | 1020 mb | -432 ft | ||||
| 09-May | 03:00 | n/a | 270° | 3 kt | Missing | 12° | 53° | 3° | 37° | 54% | 1020 mb | -192 ft | |||
| 09-May | 02:00 | n/a | 230° | 2 kt | Missing | 12° | 53° | 4° | 39° | 58% | 1020 mb | -192 ft | |||
| 09-May | 01:00 | n/a | 230° | 4 kt | Missing | 13° | 55° | 3° | 37° | 51% | 1020 mb | -72 ft | |||
| 09-May | 00:00 | n/a | 230° | 3 kt | Missing | 13° | 55° | 2° | 35° | 47% | 1020 mb | -72 ft | |||
| 08-May | 23:00 | n/a | 230° | 5 kt | Missing | 13° | 55° | 2° | 35° | 47% | 1020 mb | -72 ft | |||
| 08-May | 22:00 | n/a | 230° | 3 kt | Missing | 14° | 57° | 1° | 33° | 41% | 1021 mb | 19 ft | |||
| 08-May | 21:00 | n/a | 220° | 3 kt | Missing | 14° | 57° | 0° | 32° | 38% | 1020 mb | 48 ft | |||
| 08-May | 20:00 | n/a | 260° | 2 kt | Missing | 14° | 57° | 0° | 32° | 38% | 1020 mb | 48 ft | |||
| 08-May | 19:00 | n/a | 220° | 5 kt | Missing | 16° | 60° | 0° | 32° | 34% | 1020 mb | 288 ft | |||
| 08-May | 18:00 | n/a | 220° | 3 kt | Missing | 17° | 62° | 0° | 32° | 32% | 1019 mb | 438 ft | |||
| 08-May | 17:00 | n/a | 230° | 6 kt | Missing | 19° | 66° | -2° | 28° | 24% | 1018 mb | 707 ft | |||
| 08-May | 16:00 | n/a | 230° | 7 kt | Missing | 21° | 69° | -2° | 28° | 21% | 1018 mb | 947 ft |
Login
| Your browser is unsupported. upgrade your browser |
